sensor_id;sensor_type;location;lat;lon;timestamp;temperature;humidity
32787;DHT22;19139;49.372;8.580;2023-02-28T00:01:44;18.40;84.20
32787;DHT22;19139;49.372;8.580;2023-02-28T00:04:16;18.40;84.20
32787;DHT22;19139;49.372;8.580;2023-02-28T00:06:42;18.40;84.20
32787;DHT22;19139;49.372;8.580;2023-02-28T00:09:14;18.40;84.20
32787;DHT22;19139;49.372;8.580;2023-02-28T00:11:45;18.40;84.20
32787;DHT22;19139;49.372;8.580;2023-02-28T00:14:12;18.40;84.20
32787;DHT22;19139;49.372;8.580;2023-02-28T00:16:43;18.40;84.20
32787;DHT22;19139;49.372;8.580;2023-02-28T00:19:15;18.30;84.10
32787;DHT22;19139;49.372;8.580;2023-02-28T00:21:42;18.30;84.10
32787;DHT22;19139;49.372;8.580;2023-02-28T00:24:14;18.30;84.90
32787;DHT22;19139;49.372;8.580;2023-02-28T00:26:45;18.30;84.10
32787;DHT22;19139;49.372;8.580;2023-02-28T00:29:12;18.30;84.10
32787;DHT22;19139;49.372;8.580;2023-02-28T00:31:44;18.30;84.10
32787;DHT22;19139;49.372;8.580;2023-02-28T00:34:15;18.30;84.10
32787;DHT22;19139;49.372;8.580;2023-02-28T00:36:42;18.30;84.00
32787;DHT22;19139;49.372;8.580;2023-02-28T00:39:11;18.40;84.00
32787;DHT22;19139;49.372;8.580;2023-02-28T00:41:43;18.30;84.10
32787;DHT22;19139;49.372;8.580;2023-02-28T00:44:14;18.30;84.10
32787;DHT22;19139;49.372;8.580;2023-02-28T00:46:46;18.30;84.00
32787;DHT22;19139;49.372;8.580;2023-02-28T00:49:13;18.30;84.00
32787;DHT22;19139;49.372;8.580;2023-02-28T00:51:44;18.30;84.00
32787;DHT22;19139;49.372;8.580;2023-02-28T00:54:11;18.30;84.00
32787;DHT22;19139;49.372;8.580;2023-02-28T00:56:42;18.30;84.00
32787;DHT22;19139;49.372;8.580;2023-02-28T00:59:15;18.30;84.00
32787;DHT22;19139;49.372;8.580;2023-02-28T01:01:43;18.30;84.00
32787;DHT22;19139;49.372;8.580;2023-02-28T01:04:16;18.30;83.90
32787;DHT22;19139;49.372;8.580;2023-02-28T01:06:43;18.30;83.90
32787;DHT22;19139;49.372;8.580;2023-02-28T01:09:09;18.30;83.90
32787;DHT22;19139;49.372;8.580;2023-02-28T01:11:41;18.30;83.90
32787;DHT22;19139;49.372;8.580;2023-02-28T01:14:16;18.30;83.90
32787;DHT22;19139;49.372;8.580;2023-02-28T01:16:48;18.30;83.90
32787;DHT22;19139;49.372;8.580;2023-02-28T01:19:19;18.30;83.90
32787;DHT22;19139;49.372;8.580;2023-02-28T01:21:51;18.30;83.90
32787;DHT22;19139;49.372;8.580;2023-02-28T01:24:23;18.30;83.90
32787;DHT22;19139;49.372;8.580;2023-02-28T01:26:54;18.30;83.90
32787;DHT22;19139;49.372;8.580;2023-02-28T01:29:21;18.20;83.80
32787;DHT22;19139;49.372;8.580;2023-02-28T01:31:52;18.30;83.80
32787;DHT22;19139;49.372;8.580;2023-02-28T01:34:24;18.30;83.90
32787;DHT22;19139;49.372;8.580;2023-02-28T01:36:55;18.30;83.90
32787;DHT22;19139;49.372;8.580;2023-02-28T01:39:30;18.20;83.70
32787;DHT22;19139;49.372;8.580;2023-02-28T01:41:56;18.20;83.70
32787;DHT22;19139;49.372;8.580;2023-02-28T01:47:27;18.20;83.80
32787;DHT22;19139;49.372;8.580;2023-02-28T01:49:54;18.20;83.70
32787;DHT22;19139;49.372;8.580;2023-02-28T01:52:27;18.20;83.70
32787;DHT22;19139;49.372;8.580;2023-02-28T01:54:56;18.20;83.70
32787;DHT22;19139;49.372;8.580;2023-02-28T01:57:28;18.20;83.70
32787;DHT22;19139;49.372;8.580;2023-02-28T02:00:03;18.20;83.70
32787;DHT22;19139;49.372;8.580;2023-02-28T02:02:37;18.20;83.70
32787;DHT22;19139;49.372;8.580;2023-02-28T02:05:08;18.20;83.70
32787;DHT22;19139;49.372;8.580;2023-02-28T02:07:38;18.20;84.40
32787;DHT22;19139;49.372;8.580;2023-02-28T02:10:16;18.20;83.70
32787;DHT22;19139;49.372;8.580;2023-02-28T02:16:35;18.20;83.70
32787;DHT22;19139;49.372;8.580;2023-02-28T02:19:57;18.20;83.60
32787;DHT22;19139;49.372;8.580;2023-02-28T02:25:41;18.20;83.60
32787;DHT22;19139;49.372;8.580;2023-02-28T02:28:34;18.20;83.60
32787;DHT22;19139;49.372;8.580;2023-02-28T02:36:49;18.20;83.60
32787;DHT22;19139;49.372;8.580;2023-02-28T02:40:05;18.20;83.50
32787;DHT22;19139;49.372;8.580;2023-02-28T02:42:30;18.20;83.50
32787;DHT22;19139;49.372;8.580;2023-02-28T02:45:10;18.10;83.50
32787;DHT22;19139;49.372;8.580;2023-02-28T02:47:39;18.20;83.50
32787;DHT22;19139;49.372;8.580;2023-02-28T02:50:12;18.20;83.50
32787;DHT22;19139;49.372;8.580;2023-02-28T02:52:49;18.10;83.50
32787;DHT22;19139;49.372;8.580;2023-02-28T02:55:20;18.20;84.10
32787;DHT22;19139;49.372;8.580;2023-02-28T02:57:52;18.10;83.40
32787;DHT22;19139;49.372;8.580;2023-02-28T03:00:32;18.20;83.50
32787;DHT22;19139;49.372;8.580;2023-02-28T03:03:07;18.10;83.40
32787;DHT22;19139;49.372;8.580;2023-02-28T03:05:41;18.10;83.40
32787;DHT22;19139;49.372;8.580;2023-02-28T03:08:13;18.10;83.40
32787;DHT22;19139;49.372;8.580;2023-02-28T03:10:48;18.10;83.30
32787;DHT22;19139;49.372;8.580;2023-02-28T03:24:43;18.10;83.30
32787;DHT22;19139;49.372;8.580;2023-02-28T03:27:48;18.10;83.40
32787;DHT22;19139;49.372;8.580;2023-02-28T03:30:27;18.10;83.30
32787;DHT22;19139;49.372;8.580;2023-02-28T03:32:58;18.10;83.30
32787;DHT22;19139;49.372;8.580;2023-02-28T03:35:32;18.10;83.40
32787;DHT22;19139;49.372;8.580;2023-02-28T03:38:12;18.10;83.30
32787;DHT22;19139;49.372;8.580;2023-02-28T03:40:47;18.10;83.40
32787;DHT22;19139;49.372;8.580;2023-02-28T03:43:20;18.10;83.30
32787;DHT22;19139;49.372;8.580;2023-02-28T03:45:48;18.10;83.40
32787;DHT22;19139;49.372;8.580;2023-02-28T03:50:49;18.10;83.90
32787;DHT22;19139;49.372;8.580;2023-02-28T03:53:36;18.00;83.30
32787;DHT22;19139;49.372;8.580;2023-02-28T03:59:04;18.10;83.30
32787;DHT22;19139;49.372;8.580;2023-02-28T04:01:38;18.10;83.30
32787;DHT22;19139;49.372;8.580;2023-02-28T04:04:08;18.00;83.20
32787;DHT22;19139;49.372;8.580;2023-02-28T04:06:36;18.10;83.30
32787;DHT22;19139;49.372;8.580;2023-02-28T04:09:04;18.10;83.30
32787;DHT22;19139;49.372;8.580;2023-02-28T04:11:41;18.00;83.10
32787;DHT22;19139;49.372;8.580;2023-02-28T04:14:09;18.00;83.20
32787;DHT22;19139;49.372;8.580;2023-02-28T04:16:39;18.10;83.20
32787;DHT22;19139;49.372;8.580;2023-02-28T04:19:07;18.00;83.10
32787;DHT22;19139;49.372;8.580;2023-02-28T04:21:43;18.00;83.90
32787;DHT22;19139;49.372;8.580;2023-02-28T04:24:12;18.00;83.10
32787;DHT22;19139;49.372;8.580;2023-02-28T04:26:47;18.00;83.10
32787;DHT22;19139;49.372;8.580;2023-02-28T04:29:30;18.10;83.20
32787;DHT22;19139;49.372;8.580;2023-02-28T04:32:03;18.00;83.20
32787;DHT22;19139;49.372;8.580;2023-02-28T04:34:35;18.00;83.10
32787;DHT22;19139;49.372;8.580;2023-02-28T04:37:06;18.00;83.10
32787;DHT22;19139;49.372;8.580;2023-02-28T04:39:40;18.00;83.10
32787;DHT22;19139;49.372;8.580;2023-02-28T04:42:07;18.00;83.10
32787;DHT22;19139;49.372;8.580;2023-02-28T04:44:34;18.00;83.10
32787;DHT22;19139;49.372;8.580;2023-02-28T04:47:05;18.00;83.20
32787;DHT22;19139;49.372;8.580;2023-02-28T04:49:37;18.00;83.10
32787;DHT22;19139;49.372;8.580;2023-02-28T04:52:04;18.00;83.10
32787;DHT22;19139;49.372;8.580;2023-02-28T04:54:36;18.00;83.10
32787;DHT22;19139;49.372;8.580;2023-02-28T04:57:05;18.00;83.10
32787;DHT22;19139;49.372;8.580;2023-02-28T04:59:37;18.00;83.10
32787;DHT22;19139;49.372;8.580;2023-02-28T05:02:03;18.00;83.10
32787;DHT22;19139;49.372;8.580;2023-02-28T05:04:34;18.00;83.10
32787;DHT22;19139;49.372;8.580;2023-02-28T05:07:05;18.00;83.10
32787;DHT22;19139;49.372;8.580;2023-02-28T05:09:37;18.00;83.10
32787;DHT22;19139;49.372;8.580;2023-02-28T05:12:03;18.00;83.00
32787;DHT22;19139;49.372;8.580;2023-02-28T05:14:35;18.00;83.00
32787;DHT22;19139;49.372;8.580;2023-02-28T05:17:02;18.00;83.00
32787;DHT22;19139;49.372;8.580;2023-02-28T05:19:34;18.00;83.00
32787;DHT22;19139;49.372;8.580;2023-02-28T05:22:13;18.00;83.00
32787;DHT22;19139;49.372;8.580;2023-02-28T05:24:46;18.00;82.90
32787;DHT22;19139;49.372;8.580;2023-02-28T05:27:13;18.00;83.00
32787;DHT22;19139;49.372;8.580;2023-02-28T05:29:44;18.00;83.00
32787;DHT22;19139;49.372;8.580;2023-02-28T05:32:16;18.00;83.00
32787;DHT22;19139;49.372;8.580;2023-02-28T05:34:42;18.00;82.90
32787;DHT22;19139;49.372;8.580;2023-02-28T05:37:12;18.00;82.90
32787;DHT22;19139;49.372;8.580;2023-02-28T05:39:39;18.00;82.90
32787;DHT22;19139;49.372;8.580;2023-02-28T05:42:06;18.00;82.90
32787;DHT22;19139;49.372;8.580;2023-02-28T05:44:33;18.00;82.90
32787;DHT22;19139;49.372;8.580;2023-02-28T05:47:04;18.00;82.90
32787;DHT22;19139;49.372;8.580;2023-02-28T05:49:36;18.00;82.90
32787;DHT22;19139;49.372;8.580;2023-02-28T05:52:02;18.00;82.90
32787;DHT22;19139;49.372;8.580;2023-02-28T05:54:29;18.00;82.90
32787;DHT22;19139;49.372;8.580;2023-02-28T05:56:56;18.00;82.90
32787;DHT22;19139;49.372;8.580;2023-02-28T05:59:22;18.00;82.90
32787;DHT22;19139;49.372;8.580;2023-02-28T06:01:49;17.90;83.60
32787;DHT22;19139;49.372;8.580;2023-02-28T06:04:18;18.00;82.90
32787;DHT22;19139;49.372;8.580;2023-02-28T06:06:57;17.90;82.80
32787;DHT22;19139;49.372;8.580;2023-02-28T06:09:23;17.90;82.90
32787;DHT22;19139;49.372;8.580;2023-02-28T06:11:58;18.00;82.90
32787;DHT22;19139;49.372;8.580;2023-02-28T06:14:25;18.00;82.90
32787;DHT22;19139;49.372;8.580;2023-02-28T06:16:57;17.90;82.90
32787;DHT22;19139;49.372;8.580;2023-02-28T06:19:25;18.00;82.90
32787;DHT22;19139;49.372;8.580;2023-02-28T06:21:56;17.90;82.90
32787;DHT22;19139;49.372;8.580;2023-02-28T06:24:24;18.00;82.90
32787;DHT22;19139;49.372;8.580;2023-02-28T06:26:56;18.00;82.90
32787;DHT22;19139;49.372;8.580;2023-02-28T06:29:25;17.90;82.80
32787;DHT22;19139;49.372;8.580;2023-02-28T06:31:57;17.90;82.80
32787;DHT22;19139;49.372;8.580;2023-02-28T06:34:23;17.90;82.80
32787;DHT22;19139;49.372;8.580;2023-02-28T06:36:55;17.90;82.90
32787;DHT22;19139;49.372;8.580;2023-02-28T06:39:26;18.00;82.90
32787;DHT22;19139;49.372;8.580;2023-02-28T06:41:53;17.90;82.80
32787;DHT22;19139;49.372;8.580;2023-02-28T06:44:22;18.00;82.90
32787;DHT22;19139;49.372;8.580;2023-02-28T06:46:49;18.00;82.90
32787;DHT22;19139;49.372;8.580;2023-02-28T06:49:16;18.00;82.90
32787;DHT22;19139;49.372;8.580;2023-02-28T06:51:44;18.00;82.90
32787;DHT22;19139;49.372;8.580;2023-02-28T06:54:13;17.90;82.80
32787;DHT22;19139;49.372;8.580;2023-02-28T06:56:40;17.90;82.80
32787;DHT22;19139;49.372;8.580;2023-02-28T06:59:07;18.00;82.90
32787;DHT22;19139;49.372;8.580;2023-02-28T07:01:33;18.00;82.90
32787;DHT22;19139;49.372;8.580;2023-02-28T07:04:01;17.90;82.80
32787;DHT22;19139;49.372;8.580;2023-02-28T07:06:28;17.90;82.90
32787;DHT22;19139;49.372;8.580;2023-02-28T07:08:54;18.00;83.50
32787;DHT22;19139;49.372;8.580;2023-02-28T07:11:27;18.00;82.90
32787;DHT22;19139;49.372;8.580;2023-02-28T07:13:55;17.90;82.80
32787;DHT22;19139;49.372;8.580;2023-02-28T07:16:27;17.90;82.80
32787;DHT22;19139;49.372;8.580;2023-02-28T07:18:54;18.00;82.90
32787;DHT22;19139;49.372;8.580;2023-02-28T07:21:26;18.00;83.30
32787;DHT22;19139;49.372;8.580;2023-02-28T07:23:53;18.00;84.10
32787;DHT22;19139;49.372;8.580;2023-02-28T07:26:20;18.00;84.50
32787;DHT22;19139;49.372;8.580;2023-02-28T07:28:48;18.00;84.80
32787;DHT22;19139;49.372;8.580;2023-02-28T07:31:15;18.10;85.00
32787;DHT22;19139;49.372;8.580;2023-02-28T07:33:43;18.00;85.20
32787;DHT22;19139;49.372;8.580;2023-02-28T07:36:12;18.10;85.40
32787;DHT22;19139;49.372;8.580;2023-02-28T07:38:47;18.10;85.60
32787;DHT22;19139;49.372;8.580;2023-02-28T07:41:15;18.10;85.80
32787;DHT22;19139;49.372;8.580;2023-02-28T07:43:42;18.10;85.80
32787;DHT22;19139;49.372;8.580;2023-02-28T07:46:16;18.20;86.00
32787;DHT22;19139;49.372;8.580;2023-02-28T07:48:44;18.20;86.10
32787;DHT22;19139;49.372;8.580;2023-02-28T07:51:16;18.20;87.20
32787;DHT22;19139;49.372;8.580;2023-02-28T07:53:43;18.20;86.60
32787;DHT22;19139;49.372;8.580;2023-02-28T07:56:09;18.20;86.70
32787;DHT22;19139;49.372;8.580;2023-02-28T07:58:37;18.20;86.80
32787;DHT22;19139;49.372;8.580;2023-02-28T08:01:10;18.30;87.00
32787;DHT22;19139;49.372;8.580;2023-02-28T08:03:38;18.20;86.90
32787;DHT22;19139;49.372;8.580;2023-02-28T08:06:06;18.20;87.00
32787;DHT22;19139;49.372;8.580;2023-02-28T08:08:33;18.20;87.10
32787;DHT22;19139;49.372;8.580;2023-02-28T08:11:05;18.30;87.20
32787;DHT22;19139;49.372;8.580;2023-02-28T08:13:36;18.30;87.20
32787;DHT22;19139;49.372;8.580;2023-02-28T08:16:03;18.20;87.10
32787;DHT22;19139;49.372;8.580;2023-02-28T08:18:30;18.30;87.30
32787;DHT22;19139;49.372;8.580;2023-02-28T08:20:56;18.30;87.40
32787;DHT22;19139;49.372;8.580;2023-02-28T08:23:23;18.30;87.30
32787;DHT22;19139;49.372;8.580;2023-02-28T08:25:56;18.30;87.50
32787;DHT22;19139;49.372;8.580;2023-02-28T08:28:23;18.30;87.50
32787;DHT22;19139;49.372;8.580;2023-02-28T08:30:53;18.30;87.60
32787;DHT22;19139;49.372;8.580;2023-02-28T08:33:20;18.40;87.70
32787;DHT22;19139;49.372;8.580;2023-02-28T08:35:46;18.30;87.70
32787;DHT22;19139;49.372;8.580;2023-02-28T08:38:13;18.30;87.50
32787;DHT22;19139;49.372;8.580;2023-02-28T08:40:44;18.30;87.40
32787;DHT22;19139;49.372;8.580;2023-02-28T08:43:16;18.30;87.20
32787;DHT22;19139;49.372;8.580;2023-02-28T08:45:42;18.30;87.00
32787;DHT22;19139;49.372;8.580;2023-02-28T08:48:14;18.30;86.70
32787;DHT22;19139;49.372;8.580;2023-02-28T08:50:58;18.30;86.60
32787;DHT22;19139;49.372;8.580;2023-02-28T08:53:33;18.30;86.50
32787;DHT22;19139;49.372;8.580;2023-02-28T08:56:05;18.30;86.40
32787;DHT22;19139;49.372;8.580;2023-02-28T08:58:37;18.30;86.20
32787;DHT22;19139;49.372;8.580;2023-02-28T09:01:18;18.30;86.20
32787;DHT22;19139;49.372;8.580;2023-02-28T09:03:47;18.20;86.20
32787;DHT22;19139;49.372;8.580;2023-02-28T09:06:15;18.20;86.10
32787;DHT22;19139;49.372;8.580;2023-02-28T09:08:47;18.20;86.00
32787;DHT22;19139;49.372;8.580;2023-02-28T09:11:14;18.20;85.90
32787;DHT22;19139;49.372;8.580;2023-02-28T09:13:40;18.20;85.80
32787;DHT22;19139;49.372;8.580;2023-02-28T09:16:10;18.20;85.70
32787;DHT22;19139;49.372;8.580;2023-02-28T09:18:37;18.20;85.70
32787;DHT22;19139;49.372;8.580;2023-02-28T09:21:07;18.20;85.60
32787;DHT22;19139;49.372;8.580;2023-02-28T09:23:35;18.20;85.60
32787;DHT22;19139;49.372;8.580;2023-02-28T09:26:04;18.30;85.50
32787;DHT22;19139;49.372;8.580;2023-02-28T09:28:36;18.20;85.40
32787;DHT22;19139;49.372;8.580;2023-02-28T09:31:03;18.30;85.40
32787;DHT22;19139;49.372;8.580;2023-02-28T09:33:35;18.20;85.30
32787;DHT22;19139;49.372;8.580;2023-02-28T09:36:07;18.20;85.30
32787;DHT22;19139;49.372;8.580;2023-02-28T09:38:34;18.30;85.20
32787;DHT22;19139;49.372;8.580;2023-02-28T09:41:08;18.30;85.20
32787;DHT22;19139;49.372;8.580;2023-02-28T09:43:45;18.30;86.00
32787;DHT22;19139;49.372;8.580;2023-02-28T09:49:02;18.30;85.20
32787;DHT22;19139;49.372;8.580;2023-02-28T09:51:50;18.30;85.20
32787;DHT22;19139;49.372;8.580;2023-02-28T09:54:24;18.30;85.20
32787;DHT22;19139;49.372;8.580;2023-02-28T09:59:59;18.30;85.00
32787;DHT22;19139;49.372;8.580;2023-02-28T10:05:13;18.30;85.00
32787;DHT22;19139;49.372;8.580;2023-02-28T10:10:49;18.40;85.00
32787;DHT22;19139;49.372;8.580;2023-02-28T10:14:28;18.40;84.90
32787;DHT22;19139;49.372;8.580;2023-02-28T10:16:45;18.40;84.80
32787;DHT22;19139;49.372;8.580;2023-02-28T10:22:19;18.30;84.80
32787;DHT22;19139;49.372;8.580;2023-02-28T10:24:53;18.40;84.80
32787;DHT22;19139;49.372;8.580;2023-02-28T10:27:26;18.40;84.80
32787;DHT22;19139;49.372;8.580;2023-02-28T10:29:56;18.40;84.80
32787;DHT22;19139;49.372;8.580;2023-02-28T10:32:26;18.40;84.70
32787;DHT22;19139;49.372;8.580;2023-02-28T10:35:15;18.40;84.70
32787;DHT22;19139;49.372;8.580;2023-02-28T10:37:49;18.30;84.70
32787;DHT22;19139;49.372;8.580;2023-02-28T10:43:18;18.40;84.60
32787;DHT22;19139;49.372;8.580;2023-02-28T10:48:44;18.40;84.50
32787;DHT22;19139;49.372;8.580;2023-02-28T10:51:18;18.40;84.50
32787;DHT22;19139;49.372;8.580;2023-02-28T10:53:52;18.40;84.50
32787;DHT22;19139;49.372;8.580;2023-02-28T10:56:28;18.40;84.60
32787;DHT22;19139;49.372;8.580;2023-02-28T10:59:22;18.40;84.50
32787;DHT22;19139;49.372;8.580;2023-02-28T11:01:55;18.40;84.40
32787;DHT22;19139;49.372;8.580;2023-02-28T11:07:21;18.40;84.30
32787;DHT22;19139;49.372;8.580;2023-02-28T11:09:55;18.40;84.30
32787;DHT22;19139;49.372;8.580;2023-02-28T11:12:37;18.40;84.20
32787;DHT22;19139;49.372;8.580;2023-02-28T11:15:24;18.50;84.30
32787;DHT22;19139;49.372;8.580;2023-02-28T11:18:03;18.50;84.10
32787;DHT22;19139;49.372;8.580;2023-02-28T11:20:50;18.60;84.90
32787;DHT22;19139;49.372;8.580;2023-02-28T11:23:18;18.50;84.00
32787;DHT22;19139;49.372;8.580;2023-02-28T11:25:52;18.60;84.00
32787;DHT22;19139;49.372;8.580;2023-02-28T11:28:32;18.60;83.90
32787;DHT22;19139;49.372;8.580;2023-02-28T11:31:08;18.60;83.80
32787;DHT22;19139;49.372;8.580;2023-02-28T11:33:54;18.60;83.90
32787;DHT22;19139;49.372;8.580;2023-02-28T11:36:30;18.60;83.90
32787;DHT22;19139;49.372;8.580;2023-02-28T11:39:09;18.60;83.90
32787;DHT22;19139;49.372;8.580;2023-02-28T11:42:02;18.60;83.90
32787;DHT22;19139;49.372;8.580;2023-02-28T11:47:47;18.70;84.10
32787;DHT22;19139;49.372;8.580;2023-02-28T11:55:51;18.80;84.70
32787;DHT22;19139;49.372;8.580;2023-02-28T11:58:37;18.80;84.90
32787;DHT22;19139;49.372;8.580;2023-02-28T12:01:26;18.80;85.00
32787;DHT22;19139;49.372;8.580;2023-02-28T12:07:00;18.80;85.30
32787;DHT22;19139;49.372;8.580;2023-02-28T12:12:28;18.90;85.70
32787;DHT22;19139;49.372;8.580;2023-02-28T12:15:13;18.90;85.90
32787;DHT22;19139;49.372;8.580;2023-02-28T12:21:04;18.90;86.10
32787;DHT22;19139;49.372;8.580;2023-02-28T12:23:57;19.00;86.30
32787;DHT22;19139;49.372;8.580;2023-02-28T12:26:42;18.90;86.40
32787;DHT22;19139;49.372;8.580;2023-02-28T12:34:53;19.00;86.90
32787;DHT22;19139;49.372;8.580;2023-02-28T12:37:39;19.00;86.90
32787;DHT22;19139;49.372;8.580;2023-02-28T12:40:21;19.00;87.00
32787;DHT22;19139;49.372;8.580;2023-02-28T12:43:03;19.00;87.00
32787;DHT22;19139;49.372;8.580;2023-02-28T12:48:08;19.00;87.20
32787;DHT22;19139;49.372;8.580;2023-02-28T12:50:37;19.00;87.30
32787;DHT22;19139;49.372;8.580;2023-02-28T12:53:18;19.00;87.30
32787;DHT22;19139;49.372;8.580;2023-02-28T13:06:49;19.10;87.70
32787;DHT22;19139;49.372;8.580;2023-02-28T13:09:21;19.10;87.80
32787;DHT22;19139;49.372;8.580;2023-02-28T13:11:50;19.10;87.80
32787;DHT22;19139;49.372;8.580;2023-02-28T13:22:04;19.20;88.00
32787;DHT22;19139;49.372;8.580;2023-02-28T13:24:48;19.20;88.00
32787;DHT22;19139;49.372;8.580;2023-02-28T13:29:46;19.20;87.80
32787;DHT22;19139;49.372;8.580;2023-02-28T13:32:18;19.20;87.60
32787;DHT22;19139;49.372;8.580;2023-02-28T13:40:29;19.20;87.10
32787;DHT22;19139;49.372;8.580;2023-02-28T13:43:00;19.30;87.10
32787;DHT22;19139;49.372;8.580;2023-02-28T13:45:32;19.30;86.90
32787;DHT22;19139;49.372;8.580;2023-02-28T13:48:30;19.30;86.70
32787;DHT22;19139;49.372;8.580;2023-02-28T13:51:44;19.40;86.60
32787;DHT22;19139;49.372;8.580;2023-02-28T13:57:42;19.30;86.50
32787;DHT22;19139;49.372;8.580;2023-02-28T14:00:34;19.30;86.40
32787;DHT22;19139;49.372;8.580;2023-02-28T14:06:23;19.40;86.30
32787;DHT22;19139;49.372;8.580;2023-02-28T14:11:39;19.40;86.10
32787;DHT22;19139;49.372;8.580;2023-02-28T14:17:13;19.30;83.20
32787;DHT22;19139;49.372;8.580;2023-02-28T14:19:46;19.10;85.30
32787;DHT22;19139;49.372;8.580;2023-02-28T14:25:40;19.30;84.40
32787;DHT22;19139;49.372;8.580;2023-02-28T14:31:22;19.30;84.20
32787;DHT22;19139;49.372;8.580;2023-02-28T14:34:20;19.40;84.30
32787;DHT22;19139;49.372;8.580;2023-02-28T14:36:58;19.40;84.60
32787;DHT22;19139;49.372;8.580;2023-02-28T14:39:31;19.40;84.80
32787;DHT22;19139;49.372;8.580;2023-02-28T14:42:24;19.50;85.00
32787;DHT22;19139;49.372;8.580;2023-02-28T14:44:55;19.40;84.90
32787;DHT22;19139;49.372;8.580;2023-02-28T14:47:30;19.50;84.90
32787;DHT22;19139;49.372;8.580;2023-02-28T14:50:04;19.50;84.90
32787;DHT22;19139;49.372;8.580;2023-02-28T14:52:36;19.50;84.90
32787;DHT22;19139;49.372;8.580;2023-02-28T14:55:14;19.50;84.80
32787;DHT22;19139;49.372;8.580;2023-02-28T14:57:54;19.50;84.80
32787;DHT22;19139;49.372;8.580;2023-02-28T15:00:31;19.50;84.90
32787;DHT22;19139;49.372;8.580;2023-02-28T15:03:32;19.50;85.60
32787;DHT22;19139;49.372;8.580;2023-02-28T15:06:15;19.50;84.80
32787;DHT22;19139;49.372;8.580;2023-02-28T15:08:45;19.50;84.70
32787;DHT22;19139;49.372;8.580;2023-02-28T15:11:18;19.50;84.70
32787;DHT22;19139;49.372;8.580;2023-02-28T15:13:53;19.50;84.70
32787;DHT22;19139;49.372;8.580;2023-02-28T15:16:37;19.50;84.70
32787;DHT22;19139;49.372;8.580;2023-02-28T15:19:29;19.50;84.70
32787;DHT22;19139;49.372;8.580;2023-02-28T15:22:08;19.50;84.60
32787;DHT22;19139;49.372;8.580;2023-02-28T15:24:46;19.50;84.60
32787;DHT22;19139;49.372;8.580;2023-02-28T15:27:34;19.50;84.60
32787;DHT22;19139;49.372;8.580;2023-02-28T15:30:15;19.50;84.60
32787;DHT22;19139;49.372;8.580;2023-02-28T15:35:38;19.50;84.60
32787;DHT22;19139;49.372;8.580;2023-02-28T15:38:13;19.50;84.60
32787;DHT22;19139;49.372;8.580;2023-02-28T15:40:54;19.50;84.70
32787;DHT22;19139;49.372;8.580;2023-02-28T15:43:34;19.50;84.60
32787;DHT22;19139;49.372;8.580;2023-02-28T15:46:13;19.50;84.60
32787;DHT22;19139;49.372;8.580;2023-02-28T15:48:52;19.50;84.70
32787;DHT22;19139;49.372;8.580;2023-02-28T15:51:25;19.50;84.70
32787;DHT22;19139;49.372;8.580;2023-02-28T15:54:04;19.50;84.70
32787;DHT22;19139;49.372;8.580;2023-02-28T15:59:01;19.50;84.70
32787;DHT22;19139;49.372;8.580;2023-02-28T16:01:34;19.50;84.60
32787;DHT22;19139;49.372;8.580;2023-02-28T16:04:13;19.50;84.60
32787;DHT22;19139;49.372;8.580;2023-02-28T16:07:23;19.50;84.60
32787;DHT22;19139;49.372;8.580;2023-02-28T16:09:35;19.50;84.50
32787;DHT22;19139;49.372;8.580;2023-02-28T16:12:04;19.50;84.50
32787;DHT22;19139;49.372;8.580;2023-02-28T16:14:36;19.50;84.40
32787;DHT22;19139;49.372;8.580;2023-02-28T16:17:06;19.50;84.40
32787;DHT22;19139;49.372;8.580;2023-02-28T16:19:35;19.50;84.30
32787;DHT22;19139;49.372;8.580;2023-02-28T16:22:08;19.50;84.30
32787;DHT22;19139;49.372;8.580;2023-02-28T16:24:35;19.40;84.20
32787;DHT22;19139;49.372;8.580;2023-02-28T16:27:10;19.50;84.30
32787;DHT22;19139;49.372;8.580;2023-02-28T16:29:46;19.50;84.30
32787;DHT22;19139;49.372;8.580;2023-02-28T16:32:14;19.40;84.30
32787;DHT22;19139;49.372;8.580;2023-02-28T16:34:46;19.50;84.20
32787;DHT22;19139;49.372;8.580;2023-02-28T16:37:18;19.40;84.20
32787;DHT22;19139;49.372;8.580;2023-02-28T16:39:45;19.40;84.20
32787;DHT22;19139;49.372;8.580;2023-02-28T16:42:28;19.40;84.20
32787;DHT22;19139;49.372;8.580;2023-02-28T16:44:55;19.40;84.20
32787;DHT22;19139;49.372;8.580;2023-02-28T16:47:27;19.40;84.10
32787;DHT22;19139;49.372;8.580;2023-02-28T16:49:53;19.40;84.10
32787;DHT22;19139;49.372;8.580;2023-02-28T16:52:20;19.40;84.00
32787;DHT22;19139;49.372;8.580;2023-02-28T16:54:46;19.40;84.00
32787;DHT22;19139;49.372;8.580;2023-02-28T16:57:22;19.40;84.00
32787;DHT22;19139;49.372;8.580;2023-02-28T16:59:50;19.40;84.00
32787;DHT22;19139;49.372;8.580;2023-02-28T17:02:19;19.40;84.00
32787;DHT22;19139;49.372;8.580;2023-02-28T17:04:46;19.40;84.00
32787;DHT22;19139;49.372;8.580;2023-02-28T17:07:15;19.40;84.00
32787;DHT22;19139;49.372;8.580;2023-02-28T17:09:44;19.30;84.00
32787;DHT22;19139;49.372;8.580;2023-02-28T17:12:12;19.30;84.10
32787;DHT22;19139;49.372;8.580;2023-02-28T17:14:43;19.30;84.10
32787;DHT22;19139;49.372;8.580;2023-02-28T17:17:20;19.30;84.20
32787;DHT22;19139;49.372;8.580;2023-02-28T17:19:47;19.30;84.20
32787;DHT22;19139;49.372;8.580;2023-02-28T17:22:14;19.30;84.20
32787;DHT22;19139;49.372;8.580;2023-02-28T17:24:45;19.30;84.10
32787;DHT22;19139;49.372;8.580;2023-02-28T17:27:17;19.30;84.10
32787;DHT22;19139;49.372;8.580;2023-02-28T17:29:44;19.30;84.10
32787;DHT22;19139;49.372;8.580;2023-02-28T17:32:15;19.20;84.00
32787;DHT22;19139;49.372;8.580;2023-02-28T17:34:44;19.30;84.10
32787;DHT22;19139;49.372;8.580;2023-02-28T17:37:12;19.20;84.00
32787;DHT22;19139;49.372;8.580;2023-02-28T17:39:38;19.20;84.00
32787;DHT22;19139;49.372;8.580;2023-02-28T17:42:05;19.20;84.00
32787;DHT22;19139;49.372;8.580;2023-02-28T17:44:32;19.20;84.00
32787;DHT22;19139;49.372;8.580;2023-02-28T17:46:59;19.20;84.00
32787;DHT22;19139;49.372;8.580;2023-02-28T17:49:25;19.20;83.90
32787;DHT22;19139;49.372;8.580;2023-02-28T17:51:57;19.20;83.90
32787;DHT22;19139;49.372;8.580;2023-02-28T17:54:24;19.20;84.00
32787;DHT22;19139;49.372;8.580;2023-02-28T17:56:50;19.20;84.00
32787;DHT22;19139;49.372;8.580;2023-02-28T17:59:17;19.20;84.10
32787;DHT22;19139;49.372;8.580;2023-02-28T18:01:43;19.20;84.10
32787;DHT22;19139;49.372;8.580;2023-02-28T18:04:10;19.20;84.10
32787;DHT22;19139;49.372;8.580;2023-02-28T18:06:39;19.20;84.20
32787;DHT22;19139;49.372;8.580;2023-02-28T18:09:21;19.20;84.20
32787;DHT22;19139;49.372;8.580;2023-02-28T18:11:50;19.20;84.10
32787;DHT22;19139;49.372;8.580;2023-02-28T18:14:18;19.20;84.10
32787;DHT22;19139;49.372;8.580;2023-02-28T18:16:45;19.10;84.00
32787;DHT22;19139;49.372;8.580;2023-02-28T18:19:17;19.20;84.10